Check out our new PWSWeather beta!
PWSweather.com
Personal Weather Stations
Station Observations
SWHWX01
St AppolinardFR 38160

St AppolinardFR 38160

Lat: 45.191, Lon: 5.268

Elevation: 1460

Station Type: Davis Vantage Pro2 Plus

www.sweetwebhome.com/?show=wxindex

High Low Average
Temperature 51.2°F10.7°C 40.9°F4.9°C 45.3°F7.4°C
Dew Point 42.3°F5.7°C 37.0°F2.8°C 39.5°F4.2°C
Winds 10.9 mph 17.5 kmh Calm Calm 4.0 mph SW6.4 kmh SW
Wind Gusts 15.0 mph24.1 kmh -- 6.0 mph9.7 kmh
Humidity 90% 61% 80%
Pressure 30.31 in1026.4 mb 30.16 in1021.3 mb -
Precipitation 0.02 in0.5 mm - -
Hour Temp Dew Point Humidity Winds Wind Gusts Pressure Precip Precip Rate Daily Precip Total
12:00 AM 45.4°F7.4°C 42.3°F5.7°C 89% Calm Calm -- 30.16 in1021.3 mb - 0.00 in0.0 mm 0.00 in0.0 mm
12:30 AM 44.1°F6.7°C 41.4°F5.2°C 90% 2.0 mph WNW3.2 kmh WNW 2.0 mph3.2 kmh 30.16 in1021.3 mb - 0.00 in0.0 mm 0.00 in0.0 mm
01:00 AM 44.7°F7.1°C 41.9°F5.5°C 90% 1.2 mph WNW1.9 kmh WNW 2.0 mph3.2 kmh 30.16 in1021.3 mb - 0.00 in0.0 mm 0.00 in0.0 mm
01:30 AM 44.2°F6.8°C 41.5°F5.3°C 90% 4.1 mph WNW6.6 kmh WNW 5.0 mph8.0 kmh 30.17 in1021.7 mb - 0.00 in0.0 mm 0.00 in0.0 mm
02:00 AM 44.9°F7.2°C 40.4°F4.7°C 84% Calm Calm -- 30.17 in1021.7 mb - 0.00 in0.0 mm 0.00 in0.0 mm
02:30 AM 45.0°F7.2°C 39.8°F4.3°C 82% 2.2 mph WNW3.5 kmh WNW 3.0 mph4.8 kmh 30.18 in1022.0 mb - 0.00 in0.0 mm 0.00 in0.0 mm
03:00 AM 43.7°F6.5°C 39.2°F4.0°C 84% 0.3 mph WNW0.5 kmh WNW 3.0 mph4.8 kmh 30.18 in1022.0 mb - 0.00 in0.0 mm 0.00 in0.0 mm
03:30 AM 44.3°F6.8°C 38.9°F3.8°C 81% 3.4 mph NW5.5 kmh NW 5.0 mph8.0 kmh 30.19 in1022.4 mb - 0.00 in0.0 mm 0.00 in0.0 mm
04:00 AM 44.1°F6.7°C 39.0°F3.9°C 82% 2.3 mph NW3.7 kmh NW 3.0 mph4.8 kmh 30.19 in1022.4 mb - 0.00 in0.0 mm 0.00 in0.0 mm
04:30 AM 44.0°F6.7°C 39.2°F4.0°C 83% 1.3 mph NW2.1 kmh NW 1.0 mph1.6 kmh 30.18 in1022.0 mb - 0.00 in0.0 mm 0.00 in0.0 mm
05:00 AM 44.1°F6.7°C 39.0°F3.9°C 82% 3.1 mph NW5.0 kmh NW 4.0 mph6.4 kmh 30.19 in1022.4 mb - 0.00 in0.0 mm 0.00 in0.0 mm
05:30 AM 43.8°F6.6°C 39.0°F3.9°C 83% 0.2 mph NW0.3 kmh NW 2.0 mph3.2 kmh 30.20 in1022.7 mb - 0.00 in0.0 mm 0.00 in0.0 mm
06:00 AM 43.4°F6.3°C 39.2°F4.0°C 85% 1.9 mph NNW3.1 kmh NNW 3.0 mph4.8 kmh 30.22 in1023.4 mb - 0.00 in0.0 mm 0.00 in0.0 mm
06:30 AM 42.6°F5.9°C 39.0°F3.9°C 87% 1.1 mph NNE1.8 kmh NNE 3.0 mph4.8 kmh 30.23 in1023.7 mb - 0.00 in0.0 mm 0.00 in0.0 mm
07:00 AM 42.2°F5.7°C 39.5°F4.2°C 90% 2.1 mph NNE3.4 kmh NNE 4.0 mph6.4 kmh 30.24 in1024.0 mb - 0.01 in0.3 mm 0.01 in0.3 mm
07:30 AM 42.3°F5.7°C 39.6°F4.2°C 90% 3.3 mph NNE5.3 kmh NNE 5.0 mph8.0 kmh 30.24 in1024.0 mb - 0.01 in0.3 mm 0.02 in0.5 mm
08:00 AM 42.4°F5.8°C 39.4°F4.1°C 89% 2.6 mph NNE4.2 kmh NNE 5.0 mph8.0 kmh 30.25 in1024.4 mb - 0.00 in0.0 mm 0.02 in0.5 mm
08:30 AM 42.8°F6.0°C 39.2°F4.0°C 87% 4.9 mph N7.9 kmh N 6.0 mph9.7 kmh 30.26 in1024.7 mb - 0.00 in0.0 mm 0.02 in0.5 mm
09:00 AM 44.0°F6.7°C 39.2°F4.0°C 83% 4.2 mph N6.8 kmh N 6.0 mph9.7 kmh 30.27 in1025.1 mb - 0.00 in0.0 mm 0.02 in0.5 mm
09:30 AM 44.7°F7.1°C 39.5°F4.2°C 82% 6.2 mph NNE10.0 kmh NNE 9.0 mph14.5 kmh 30.27 in1025.1 mb - 0.00 in0.0 mm 0.02 in0.5 mm
10:00 AM 46.4°F8.0°C 40.6°F4.8°C 80% 5.0 mph N8.0 kmh N 10.0 mph16.1 kmh 30.27 in1025.1 mb - 0.00 in0.0 mm 0.02 in0.5 mm
10:30 AM 47.3°F8.5°C 41.1°F5.1°C 79% 7.4 mph N11.9 kmh N 15.0 mph24.1 kmh 30.29 in1025.7 mb - 0.00 in0.0 mm 0.02 in0.5 mm
11:00 AM 45.8°F7.7°C 40.3°F4.6°C 81% 10.9 mph N17.5 kmh N 13.0 mph20.9 kmh 30.30 in1026.1 mb - 0.01 in0.3 mm 0.02 in0.5 mm
11:30 AM 47.6°F8.7°C 40.1°F4.5°C 75% 6.3 mph NE10.1 kmh NE 11.0 mph17.7 kmh 30.30 in1026.1 mb - 0.00 in0.0 mm 0.02 in0.5 mm
12:00 PM 47.8°F8.8°C 40.2°F4.6°C 75% 4.5 mph N7.2 kmh N 8.0 mph12.9 kmh 30.31 in1026.4 mb - 0.00 in0.0 mm 0.02 in0.5 mm
12:30 PM 47.7°F8.7°C 40.1°F4.5°C 75% 2.4 mph NE3.9 kmh NE 6.0 mph9.7 kmh 30.30 in1026.1 mb - 0.00 in0.0 mm 0.02 in0.5 mm
01:00 PM 50.3°F10.2°C 41.2°F5.1°C 71% 5.0 mph ENE8.0 kmh ENE 11.0 mph17.7 kmh 30.29 in1025.7 mb - 0.00 in0.0 mm 0.02 in0.5 mm
01:30 PM 49.3°F9.6°C 40.3°F4.6°C 71% 1.5 mph ENE2.4 kmh ENE 3.0 mph4.8 kmh 30.30 in1026.1 mb - 0.00 in0.0 mm 0.02 in0.5 mm
02:00 PM 48.5°F9.2°C 40.2°F4.6°C 73% 1.9 mph NNW3.1 kmh NNW 10.0 mph16.1 kmh 30.29 in1025.7 mb - 0.00 in0.0 mm 0.02 in0.5 mm
02:30 PM 51.2°F10.7°C 40.2°F4.6°C 66% 3.0 mph ENE4.8 kmh ENE 9.0 mph14.5 kmh 30.28 in1025.4 mb - 0.00 in0.0 mm 0.02 in0.5 mm
03:00 PM 50.1°F10.1°C 38.0°F3.3°C 63% 5.7 mph N9.2 kmh N 9.0 mph14.5 kmh 30.28 in1025.4 mb - 0.00 in0.0 mm 0.02 in0.5 mm
03:30 PM 50.6°F10.3°C 37.6°F3.1°C 61% 7.4 mph N11.9 kmh N 10.0 mph16.1 kmh 30.28 in1025.4 mb - 0.00 in0.0 mm 0.02 in0.5 mm
04:00 PM 49.8°F9.9°C 38.1°F3.4°C 64% 7.5 mph NW12.1 kmh NW 10.0 mph16.1 kmh 30.27 in1025.1 mb - 0.00 in0.0 mm 0.02 in0.5 mm
04:30 PM 49.0°F9.4°C 40.0°F4.4°C 71% 5.9 mph NNW9.5 kmh NNW 7.0 mph11.3 kmh 30.28 in1025.4 mb - 0.00 in0.0 mm 0.02 in0.5 mm
05:00 PM 48.3°F9.1°C 39.0°F3.9°C 70% 2.4 mph NNE3.9 kmh NNE 9.0 mph14.5 kmh 30.27 in1025.1 mb - 0.00 in0.0 mm 0.02 in0.5 mm
05:30 PM 48.4°F9.1°C 39.8°F4.3°C 72% 7.2 mph NW11.6 kmh NW 11.0 mph17.7 kmh 30.27 in1025.1 mb - 0.00 in0.0 mm 0.02 in0.5 mm
06:00 PM 47.9°F8.8°C 39.7°F4.3°C 73% 1.9 mph N3.1 kmh N 5.0 mph8.0 kmh 30.28 in1025.4 mb - 0.00 in0.0 mm 0.02 in0.5 mm
06:30 PM 46.4°F8.0°C 39.2°F4.0°C 76% 5.6 mph N9.0 kmh N 9.0 mph14.5 kmh 30.29 in1025.7 mb - 0.00 in0.0 mm 0.02 in0.5 mm
07:00 PM 45.0°F7.2°C 39.5°F4.2°C 81% 7.3 mph NNW11.7 kmh NNW 8.0 mph12.9 kmh 30.29 in1025.7 mb - 0.00 in0.0 mm 0.02 in0.5 mm
07:30 PM 43.8°F6.6°C 39.0°F3.9°C 83% 6.9 mph N11.1 kmh N 10.0 mph16.1 kmh 30.29 in1025.7 mb - 0.00 in0.0 mm 0.02 in0.5 mm
08:00 PM 43.4°F6.3°C 38.9°F3.8°C 84% 8.5 mph NNW13.7 kmh NNW 12.0 mph19.3 kmh 30.29 in1025.7 mb - 0.00 in0.0 mm 0.02 in0.5 mm
08:30 PM 42.6°F5.9°C 38.4°F3.6°C 85% 4.0 mph N6.4 kmh N 6.0 mph9.7 kmh 30.30 in1026.1 mb - 0.00 in0.0 mm 0.02 in0.5 mm
09:00 PM 42.4°F5.8°C 38.2°F3.4°C 85% 5.6 mph N9.0 kmh N 7.0 mph11.3 kmh 30.29 in1025.7 mb - 0.00 in0.0 mm 0.02 in0.5 mm
09:30 PM 42.1°F5.6°C 37.9°F3.3°C 85% 3.7 mph N6.0 kmh N 6.0 mph9.7 kmh 30.29 in1025.7 mb - 0.00 in0.0 mm 0.02 in0.5 mm
10:00 PM 42.0°F5.6°C 37.9°F3.3°C 85% 6.4 mph NNW10.3 kmh NNW 10.0 mph16.1 kmh 30.29 in1025.7 mb - 0.00 in0.0 mm 0.02 in0.5 mm
10:30 PM 42.1°F5.6°C 37.9°F3.3°C 85% 2.3 mph N3.7 kmh N 4.0 mph6.4 kmh 30.28 in1025.4 mb - 0.00 in0.0 mm 0.02 in0.5 mm
11:00 PM 41.5°F5.3°C 37.3°F2.9°C 85% 0.3 mph NNE0.5 kmh NNE 3.0 mph4.8 kmh 30.28 in1025.4 mb - 0.00 in0.0 mm 0.02 in0.5 mm
11:30 PM 40.9°F4.9°C 37.0°F2.8°C 86% 0.9 mph NNE1.4 kmh NNE 4.0 mph6.4 kmh 30.28 in1025.4 mb - 0.00 in0.0 mm 0.02 in0.5 mm